createdAt,value
2018-06-27T00:01:59.189Z,102460.16
2018-06-27T00:04:27.527Z,102456.01
2018-06-27T00:06:55.843Z,102453.87
2018-06-27T00:09:24.158Z,102452.66
2018-06-27T00:11:51.892Z,102456.25
2018-06-27T00:14:20.801Z,102451.47
2018-06-27T00:16:49.117Z,102451.66
2018-06-27T00:19:17.438Z,102454.73
2018-06-27T00:21:45.759Z,102455.41
2018-06-27T00:24:14.092Z,102459.63
2018-06-27T00:26:42.401Z,102457.09
2018-06-27T00:29:10.717Z,102461.84
2018-06-27T00:31:38.480Z,102459.97
2018-06-27T00:34:07.382Z,102463.50
2018-06-27T00:36:35.714Z,102460.66
2018-06-27T00:39:04.028Z,102460.19
2018-06-27T00:41:31.773Z,102458.20
2018-06-27T00:44:00.717Z,102460.49
2018-06-27T00:46:29.036Z,102457.47
2018-06-27T00:48:57.353Z,102456.59
2018-06-27T00:51:25.671Z,102460.78
2018-06-27T00:53:53.985Z,102470.03
2018-06-27T00:56:22.304Z,102474.64
2018-06-27T00:58:50.153Z,102477.13
2018-06-27T01:01:19.194Z,102473.17
2018-06-27T01:03:47.522Z,102477.87
2018-06-27T01:06:15.270Z,102473.16
2018-06-27T01:08:44.168Z,102473.58
2018-06-27T01:11:11.917Z,102476.02
2018-06-27T01:13:40.228Z,102475.42
2018-06-27T01:16:09.129Z,102479.06
2018-06-27T01:18:37.449Z,102478.24
2018-06-27T01:21:05.196Z,102475.07
2018-06-27T01:23:33.522Z,102475.03
2018-06-27T01:26:02.422Z,102476.67
2018-06-27T01:28:30.740Z,102480.73
2018-06-27T01:30:59.633Z,102479.45
2018-06-27T01:33:27.960Z,102479.08
2018-06-27T01:35:55.706Z,102481.88
2018-06-27T01:38:24.616Z,102482.22
2018-06-27T01:40:52.933Z,102490.75
2018-06-27T01:43:21.258Z,102494.39
2018-06-27T01:45:49.889Z,102494.66
2018-06-27T01:48:18.220Z,102493.12
2018-06-27T01:50:45.961Z,102488.45
2018-06-27T01:53:14.282Z,102491.94
2018-06-27T01:55:43.177Z,102491.69
2018-06-27T01:58:10.927Z,102482.30
2018-06-27T02:00:39.265Z,102479.89
2018-06-27T02:03:08.459Z,102478.73
2018-06-27T02:05:35.976Z,102479.62
2018-06-27T02:08:04.887Z,102489.66
2018-06-27T02:10:33.240Z,102496.91
2018-06-27T02:13:01.546Z,102496.15
2018-06-27T02:15:29.864Z,102494.87
2018-06-27T02:17:58.176Z,102501.20
2018-06-27T02:20:26.496Z,102505.41
2018-06-27T02:22:55.044Z,102502.08
2018-06-27T02:25:23.137Z,102498.42
2018-06-27T02:27:51.457Z,102500.94
2018-06-27T02:30:19.791Z,102502.98
2018-06-27T02:32:47.535Z,102502.98
2018-06-27T02:35:16.442Z,102510.27
2018-06-27T02:37:44.767Z,102513.48
2018-06-27T02:40:12.505Z,102515.20
2018-06-27T02:42:41.400Z,102515.98
2018-06-27T02:45:09.147Z,102509.37
2018-06-27T02:47:37.473Z,102512.98
2018-06-27T02:50:06.151Z,102515.09
2018-06-27T02:52:34.482Z,102513.70
2018-06-27T02:55:03.437Z,102506.81
2018-06-27T02:57:31.116Z,102512.83
2018-06-27T03:00:00.393Z,102513.09
2018-06-27T03:02:28.166Z,102510.89
2018-06-27T03:04:57.079Z,102511.02
2018-06-27T03:07:25.407Z,102509.35
2018-06-27T03:09:55.871Z,102516.23
2018-06-27T03:12:22.059Z,102509.41
2018-06-27T03:14:49.801Z,102511.39
2018-06-27T03:17:18.708Z,102519.85
2018-06-27T03:19:47.778Z,102526.02
2018-06-27T03:22:16.093Z,102527.81
2018-06-27T03:24:44.418Z,102526.03
2018-06-27T03:27:12.730Z,102530.14
2018-06-27T03:29:41.056Z,102530.46
2018-06-27T03:32:08.804Z,102528.80
2018-06-27T03:34:37.708Z,102533.68
2018-06-27T03:37:05.450Z,102537.99
2018-06-27T03:39:34.357Z,102532.96
2018-06-27T03:42:02.679Z,102531.94
2018-06-27T03:44:30.998Z,102534.28
2018-06-27T03:46:59.325Z,102535.11
2018-06-27T03:49:27.637Z,102530.96
2018-06-27T03:51:55.950Z,102539.89
2018-06-27T03:54:24.800Z,102541.58
2018-06-27T03:56:53.126Z,102536.80
2018-06-27T03:59:21.448Z,102537.34
2018-06-27T04:01:49.184Z,102535.44
2018-06-27T04:04:17.505Z,102537.47
2018-06-27T04:06:46.461Z,102533.59
2018-06-27T04:09:14.215Z,102535.30
2018-06-27T04:11:43.431Z,102540.03
2018-06-27T04:14:11.754Z,102540.16
2018-06-27T04:16:40.084Z,102538.52
2018-06-27T04:19:08.404Z,102545.56
2018-06-27T04:21:36.719Z,102542.49
2018-06-27T04:24:04.462Z,102547.31
2018-06-27T04:26:33.364Z,102544.81
2018-06-27T04:29:01.113Z,102550.48
2018-06-27T04:31:30.028Z,102552.63
2018-06-27T04:33:57.800Z,102546.56
2018-06-27T04:36:26.121Z,102547.88
2018-06-27T04:38:55.028Z,102549.74
2018-06-27T04:41:22.902Z,102555.35
2018-06-27T04:43:51.794Z,102562.80
2018-06-27T04:46:20.118Z,102562.86
2018-06-27T04:48:48.516Z,102566.64
2018-06-27T04:51:17.419Z,102561.23
2018-06-27T04:53:45.183Z,102560.89
2018-06-27T04:56:14.083Z,102557.73
2018-06-27T04:58:41.825Z,102556.84
2018-06-27T05:03:38.473Z,102566.77
2018-06-27T05:06:06.796Z,102569.27
2018-06-27T05:08:35.764Z,102572.41
2018-06-27T05:11:04.091Z,102568.63
2018-06-27T05:13:31.838Z,102568.26
2018-06-27T05:16:00.779Z,102567.17
2018-06-27T05:18:28.484Z,102568.28
2018-06-27T05:20:57.397Z,102570.44
2018-06-27T05:23:25.144Z,102572.33
2018-06-27T05:25:54.046Z,102567.06
2018-06-27T05:28:22.384Z,102562.79
2018-06-27T05:30:50.709Z,102563.25
2018-06-27T05:33:19.030Z,102569.33
2018-06-27T05:35:47.124Z,102573.74
2018-06-27T05:38:16.040Z,102570.09
2018-06-27T05:40:44.358Z,102574.66
2018-06-27T05:43:12.119Z,102576.00
2018-06-27T05:45:40.456Z,102575.77
2018-06-27T05:48:08.782Z,102579.69
2018-06-27T05:50:37.678Z,102577.77
2018-06-27T05:53:06.004Z,102577.00
2018-06-27T05:55:34.314Z,102571.77
2018-06-27T05:58:02.640Z,102568.25
2018-06-27T06:00:30.366Z,102577.36
2018-06-27T06:02:59.268Z,102579.58
2018-06-27T06:05:27.587Z,102576.70
2018-06-27T06:07:55.917Z,102577.14
2018-06-27T06:10:23.707Z,102580.50
2018-06-27T06:12:52.621Z,102583.18
2018-06-27T06:15:20.365Z,102586.73
2018-06-27T06:17:49.259Z,102585.44
2018-06-27T06:20:17.026Z,102591.85
2018-06-27T06:22:45.919Z,102596.36
2018-06-27T06:25:13.665Z,102596.42
2018-06-27T06:27:42.564Z,102599.73
2018-06-27T06:30:10.877Z,102606.58
2018-06-27T06:32:39.998Z,102608.23
2018-06-27T06:35:09.640Z,102610.84
2018-06-27T06:37:38.625Z,102608.77
2018-06-27T06:40:06.942Z,102607.38
2018-06-27T06:42:35.265Z,102609.22
2018-06-27T06:45:03.010Z,102608.09
2018-06-27T06:47:31.931Z,102606.44
2018-06-27T06:50:00.290Z,102604.44
2018-06-27T06:52:28.869Z,102611.23
2018-06-27T06:54:57.636Z,102612.52
2018-06-27T06:57:26.519Z,102612.46
2018-06-27T06:59:54.262Z,102613.32
2018-06-27T07:02:22.591Z,102607.20
2018-06-27T07:04:51.782Z,102606.05
2018-06-27T07:07:20.090Z,102603.47
2018-06-27T07:09:48.662Z,102606.69
2018-06-27T07:12:17.028Z,102610.53
2018-06-27T07:14:45.355Z,102617.52
2018-06-27T07:17:13.678Z,102622.95
2018-06-27T07:19:41.433Z,102622.75
2018-06-27T07:22:10.329Z,102622.61
2018-06-27T07:24:38.655Z,102619.00
2018-06-27T07:27:06.397Z,102619.13
2018-06-27T07:29:34.722Z,102623.44
2018-06-27T07:32:03.650Z,102628.23
2018-06-27T07:34:31.976Z,102628.60
2018-06-27T07:37:00.295Z,102629.97
2018-06-27T07:39:28.066Z,102635.97
2018-06-27T07:41:56.957Z,102640.42
2018-06-27T07:44:25.327Z,102636.87
2018-06-27T07:46:53.025Z,102636.13
2018-06-27T07:49:21.338Z,102637.38
2018-06-27T07:51:49.664Z,102639.06
2018-06-27T07:54:18.565Z,102645.70
2018-06-27T07:56:46.891Z,102649.36
2018-06-27T07:59:15.214Z,102647.75
2018-06-27T08:01:43.548Z,102646.41
2018-06-27T08:04:11.873Z,102648.84
2018-06-27T08:06:39.621Z,102644.33
2018-06-27T08:09:08.525Z,102644.59
2018-06-27T08:11:36.901Z,102640.66
2018-06-27T08:14:05.282Z,102644.84
2018-06-27T08:16:33.315Z,102639.38
2018-06-27T08:19:01.361Z,102647.84
2018-06-27T08:21:29.708Z,102647.18
2018-06-27T08:23:58.611Z,102640.96
2018-06-27T08:26:27.095Z,102645.72
2018-06-27T08:28:55.253Z,102646.81
2018-06-27T08:31:23.575Z,102642.46
2018-06-27T08:33:51.898Z,102639.01
2018-06-27T08:36:20.231Z,102642.20
2018-06-27T08:38:48.558Z,102641.04
2018-06-27T08:41:16.879Z,102642.56
2018-06-27T08:43:45.365Z,102642.75
2018-06-27T08:46:13.065Z,102646.70
2018-06-27T08:48:41.960Z,102653.80
2018-06-27T08:51:10.281Z,102647.37
2018-06-27T08:53:38.614Z,102649.73
2018-06-27T08:56:06.932Z,102652.04
2018-06-27T08:58:35.260Z,102653.80
2018-06-27T09:01:03.590Z,102652.56
2018-06-27T09:03:31.911Z,102649.13
2018-06-27T09:06:00.245Z,102652.97
2018-06-27T09:08:28.731Z,102652.62
2018-06-27T09:10:58.080Z,102652.63
2018-06-27T09:13:25.638Z,102659.27
2018-06-27T09:15:54.076Z,102648.80
2018-06-27T09:18:22.348Z,102651.45
2018-06-27T09:20:50.078Z,102653.04
2018-06-27T09:23:18.993Z,102654.77
2018-06-27T09:25:47.316Z,102655.23
2018-06-27T09:28:15.672Z,102657.33
2018-06-27T09:30:44.038Z,102665.31
2018-06-27T09:33:12.357Z,102666.57
2018-06-27T09:35:40.677Z,102666.20
2018-06-27T09:38:08.429Z,102665.84
2018-06-27T09:40:38.054Z,102671.31
2018-06-27T09:43:06.485Z,102664.70
2018-06-27T09:45:34.742Z,102669.08
2018-06-27T09:48:03.113Z,102670.13
2018-06-27T09:50:31.404Z,102672.28
2018-06-27T09:52:59.713Z,102671.28
2018-06-27T09:55:28.044Z,102666.08
2018-06-27T09:57:55.803Z,102666.41
2018-06-27T10:00:24.703Z,102663.44
2018-06-27T10:02:52.452Z,102666.25
2018-06-27T10:05:20.829Z,102661.71
2018-06-27T10:07:49.721Z,102667.62
2018-06-27T10:10:18.046Z,102657.83
2018-06-27T10:12:46.351Z,102663.41
2018-06-27T10:15:14.113Z,102669.80
2018-06-27T10:17:42.489Z,102671.21
2018-06-27T10:20:12.438Z,102669.36
2018-06-27T10:22:40.772Z,102666.03
2018-06-27T10:25:08.582Z,102669.30
2018-06-27T10:27:37.482Z,102670.27
2018-06-27T10:30:06.112Z,102667.06
2018-06-27T10:32:34.151Z,102661.83
2018-06-27T10:35:02.594Z,102662.91
2018-06-27T10:37:30.919Z,102665.36
2018-06-27T10:39:59.761Z,102668.88
2018-06-27T10:42:28.101Z,102668.27
2018-06-27T10:44:56.418Z,102666.02
2018-06-27T10:47:24.736Z,102668.15
2018-06-27T10:49:53.650Z,102668.16
2018-06-27T10:52:21.967Z,102666.53
2018-06-27T10:54:50.411Z,102670.68
2018-06-27T10:57:18.732Z,102666.23
2018-06-27T10:59:47.069Z,102667.45
2018-06-27T11:02:17.927Z,102664.39
2018-06-27T11:04:46.383Z,102654.72
2018-06-27T11:07:16.350Z,102651.98
2018-06-27T11:09:46.660Z,102647.97
2018-06-27T11:12:14.811Z,102647.61
2018-06-27T11:14:43.085Z,102653.31
2018-06-27T11:17:11.656Z,102655.07
2018-06-27T11:19:40.063Z,102657.27
2018-06-27T11:22:08.183Z,102661.69
2018-06-27T11:24:36.522Z,102663.55
2018-06-27T11:27:05.066Z,102662.64
2018-06-27T11:29:33.215Z,102658.34
2018-06-27T11:32:01.924Z,102662.78
2018-06-27T11:34:29.679Z,102655.48
2018-06-27T11:36:58.636Z,102657.92
2018-06-27T11:39:26.981Z,102664.21
2018-06-27T11:41:55.298Z,102654.30
2018-06-27T11:44:23.435Z,102661.28
2018-06-27T11:46:51.720Z,102648.62
2018-06-27T11:49:20.617Z,102649.24
2018-06-27T11:51:48.959Z,102649.78
2018-06-27T11:54:17.275Z,102653.92
2018-06-27T11:56:45.031Z,102655.83
2018-06-27T11:59:13.926Z,102663.24
2018-06-27T12:01:42.253Z,102661.93
2018-06-27T12:04:10.003Z,102660.31
2018-06-27T12:06:38.911Z,102663.65
2018-06-27T12:09:07.238Z,102660.87
2018-06-27T12:11:35.717Z,102658.36
2018-06-27T12:14:03.623Z,102659.57
2018-06-27T12:16:33.295Z,102657.07
2018-06-27T12:19:00.961Z,102655.17
2018-06-27T12:21:29.280Z,102651.44
2018-06-27T12:23:57.692Z,102648.30
2018-06-27T12:26:26.097Z,102649.83
2018-06-27T12:28:54.381Z,102644.92
2018-06-27T12:31:22.723Z,102643.92
2018-06-27T12:33:51.046Z,102635.96
2018-06-27T12:36:19.587Z,102632.64
2018-06-27T12:38:47.879Z,102634.50
2018-06-27T12:41:16.235Z,102634.87
2018-06-27T12:43:43.986Z,102639.16
2018-06-27T12:46:12.924Z,102634.36
2018-06-27T12:48:41.291Z,102636.55
2018-06-27T12:51:09.622Z,102632.89
2018-06-27T12:53:37.986Z,102634.56
2018-06-27T12:56:06.421Z,102632.31
2018-06-27T12:58:34.195Z,102636.93
2018-06-27T13:01:03.096Z,102633.44
2018-06-27T13:03:31.440Z,102633.86
2018-06-27T13:05:59.888Z,102636.94
2018-06-27T13:08:28.431Z,102631.73
2018-06-27T13:10:56.550Z,102634.22
2018-06-27T13:13:24.867Z,102638.22
2018-06-27T13:15:53.305Z,102632.52
2018-06-27T13:18:21.533Z,102626.94
2018-06-27T13:20:50.276Z,102631.08
2018-06-27T13:23:19.237Z,102631.39
2018-06-27T13:25:46.984Z,102627.84
2018-06-27T13:28:16.722Z,102627.53
2018-06-27T13:30:46.127Z,102629.66
2018-06-27T13:33:13.671Z,102625.89
2018-06-27T13:35:41.431Z,102628.19
2018-06-27T13:38:10.376Z,102630.06
2018-06-27T13:40:38.939Z,102633.39
2018-06-27T13:43:07.157Z,102627.00
2018-06-27T13:45:35.598Z,102627.44
2018-06-27T13:48:03.838Z,102621.38
2018-06-27T13:50:31.667Z,102617.13
2018-06-27T13:52:59.988Z,102613.66
2018-06-27T13:55:28.890Z,102621.45
2018-06-27T13:57:58.023Z,102624.63
2018-06-27T14:00:25.013Z,102632.81
2018-06-27T14:02:54.860Z,102633.91
2018-06-27T14:05:23.968Z,102632.17
2018-06-27T14:07:52.310Z,102629.94
2018-06-27T14:10:20.880Z,102634.75
2018-06-27T14:12:53.003Z,102640.41
2018-06-27T14:15:18.199Z,102638.94
2018-06-27T14:17:47.083Z,102634.95
2018-06-27T14:20:15.417Z,102637.31
2018-06-27T14:22:43.741Z,102631.88
2018-06-27T14:25:12.150Z,102635.72
2018-06-27T14:27:40.587Z,102635.83
2018-06-27T14:30:08.375Z,102631.83
2018-06-27T14:32:40.131Z,102628.56
2018-06-27T14:35:08.464Z,102623.85
2018-06-27T14:37:36.220Z,102628.73
2018-06-27T14:40:05.197Z,102622.33
2018-06-27T14:42:33.506Z,102616.55
2018-06-27T14:45:01.850Z,102609.05
2018-06-27T14:47:29.662Z,102612.46
2018-06-27T14:49:58.590Z,102608.34
2018-06-27T14:52:26.344Z,102604.95
2018-06-27T14:54:55.263Z,102603.69
2018-06-27T14:57:23.003Z,102601.88
2018-06-27T14:59:52.261Z,102604.78
2018-06-27T15:02:20.763Z,102594.48
2018-06-27T15:04:48.710Z,102592.37
2018-06-27T15:07:17.561Z,102594.39
2018-06-27T15:09:45.906Z,102602.95
2018-06-27T15:12:14.225Z,102600.89
2018-06-27T15:14:42.559Z,102599.03
2018-06-27T15:17:10.898Z,102595.42
2018-06-27T15:19:38.682Z,102601.94
2018-06-27T15:22:07.904Z,102596.49
2018-06-27T15:24:36.010Z,102594.30
2018-06-27T15:27:04.405Z,102593.16
2018-06-27T15:29:32.837Z,102592.17
2018-06-27T15:32:01.325Z,102583.64
2018-06-27T15:34:29.933Z,102578.78
2018-06-27T15:36:58.234Z,102576.64
2018-06-27T15:39:30.401Z,102570.75
2018-06-27T15:41:58.810Z,102572.13
2018-06-27T15:44:30.643Z,102571.45
2018-06-27T15:46:59.685Z,102573.88
2018-06-27T15:49:30.090Z,102577.34
2018-06-27T15:51:59.328Z,102573.73
2018-06-27T15:54:27.698Z,102582.03
2018-06-27T15:56:56.610Z,102583.75
2018-06-27T15:59:24.965Z,102585.11
2018-06-27T16:01:53.608Z,102582.84
2018-06-27T16:04:23.631Z,102579.59
2018-06-27T16:06:52.374Z,102587.42
2018-06-27T16:09:20.699Z,102583.81
2018-06-27T16:11:49.107Z,102584.88
2018-06-27T16:14:16.827Z,102578.06
2018-06-27T16:16:45.987Z,102576.46
2018-06-27T16:19:14.233Z,102579.98
2018-06-27T16:21:42.848Z,102585.73
2018-06-27T16:24:11.639Z,102579.55
2018-06-27T16:26:40.026Z,102570.16
2018-06-27T16:29:08.764Z,102574.23
2018-06-27T16:31:37.530Z,102576.28
2018-06-27T16:34:05.930Z,102574.61
2018-06-27T16:36:34.203Z,102568.83
2018-06-27T16:39:03.698Z,102570.74
2018-06-27T16:41:32.037Z,102567.87
2018-06-27T16:44:02.914Z,102566.95
2018-06-27T16:46:31.097Z,102564.31
2018-06-27T16:49:00.069Z,102562.09
2018-06-27T16:51:28.487Z,102561.85
2018-06-27T16:53:56.746Z,102564.41
2018-06-27T16:56:24.539Z,102568.01
2018-06-27T16:58:52.868Z,102566.38
2018-06-27T17:01:21.507Z,102566.63
2018-06-27T17:03:59.553Z,102572.44
2018-06-27T17:06:18.625Z,102564.63
2018-06-27T17:08:46.906Z,102562.84
2018-06-27T17:11:14.946Z,102561.34
2018-06-27T17:13:43.985Z,102564.91
2018-06-27T17:16:12.295Z,102563.63
2018-06-27T17:18:40.202Z,102560.88
2018-06-27T17:21:08.400Z,102562.04
2018-06-27T17:23:36.715Z,102560.42
2018-06-27T17:26:05.876Z,102559.70
2018-06-27T17:28:40.071Z,102558.81
2018-06-27T17:31:04.150Z,102561.38
2018-06-27T17:33:32.880Z,102565.16
2018-06-27T17:36:03.159Z,102560.16
2018-06-27T17:38:30.147Z,102553.32
2018-06-27T17:40:59.053Z,102546.48
2018-06-27T17:43:27.522Z,102545.72
2018-06-27T17:45:55.823Z,102546.91
2018-06-27T17:48:25.486Z,102549.48
2018-06-27T17:51:05.139Z,102550.42
2018-06-27T17:53:25.143Z,102542.78
2018-06-27T17:55:53.361Z,102544.40
2018-06-27T17:58:21.696Z,102545.23
2018-06-27T18:00:50.155Z,102540.91
2018-06-27T18:03:17.901Z,102536.85
2018-06-27T18:05:47.207Z,102540.10
2018-06-27T18:08:15.854Z,102540.36
2018-06-27T18:10:45.606Z,102539.78
2018-06-27T18:13:13.301Z,102540.74
2018-06-27T18:15:42.205Z,102537.12
2018-06-27T18:18:10.543Z,102536.06
2018-06-27T18:20:38.921Z,102539.79
2018-06-27T18:23:07.304Z,102542.41
2018-06-27T18:25:35.585Z,102542.75
2018-06-27T18:28:03.972Z,102544.44
2018-06-27T18:30:33.120Z,102543.80
2018-06-27T18:33:00.906Z,102541.14
2018-06-27T18:35:29.226Z,102541.87
2018-06-27T18:37:57.550Z,102542.99
2018-06-27T18:40:26.453Z,102542.88
2018-06-27T18:42:54.884Z,102547.53
2018-06-27T18:45:23.707Z,102549.08
2018-06-27T18:47:51.849Z,102555.17
2018-06-27T18:50:20.169Z,102552.28
2018-06-27T18:52:48.495Z,102552.30
2018-06-27T18:55:16.824Z,102544.19
2018-06-27T18:57:45.155Z,102551.56
2018-06-27T19:00:13.495Z,102550.18
2018-06-27T19:02:41.861Z,102554.92
2018-06-27T19:05:10.184Z,102553.10
2018-06-27T19:07:38.526Z,102552.28
2018-06-27T19:10:06.314Z,102553.02
2018-06-27T19:12:35.477Z,102550.95
2018-06-27T19:15:03.562Z,102555.73
2018-06-27T19:17:37.661Z,102552.98
2018-06-27T19:20:06.034Z,102553.89
2018-06-27T19:22:34.429Z,102552.80
2018-06-27T19:25:03.623Z,102555.28
2018-06-27T19:27:31.982Z,102554.63
2018-06-27T19:30:00.336Z,102561.02
2018-06-27T19:32:28.688Z,102557.17
2018-06-27T19:34:57.075Z,102557.48
2018-06-27T19:37:24.810Z,102561.38
2018-06-27T19:39:53.710Z,102562.13
2018-06-27T19:42:22.079Z,102559.03
2018-06-27T19:44:51.639Z,102561.25
2018-06-27T19:47:19.381Z,102559.47
2018-06-27T19:49:48.691Z,102564.94
2018-06-27T19:52:17.065Z,102566.04
2018-06-27T19:54:45.403Z,102563.41
2018-06-27T19:57:13.844Z,102567.03
2018-06-27T19:59:42.216Z,102567.78
2018-06-27T20:02:10.860Z,102568.61
2018-06-27T20:04:39.143Z,102564.83
2018-06-27T20:07:06.916Z,102568.88
2018-06-27T20:09:35.540Z,102569.00
2018-06-27T20:12:04.435Z,102569.66
2018-06-27T20:14:32.803Z,102570.38
2018-06-27T20:17:01.088Z,102568.91
2018-06-27T20:19:28.832Z,102572.35
2018-06-27T20:21:57.847Z,102574.41
2018-06-27T20:24:26.140Z,102575.24
2018-06-27T20:26:54.492Z,102572.61
2018-06-27T20:29:22.286Z,102561.09
2018-06-27T20:31:51.223Z,102563.01
2018-06-27T20:34:19.584Z,102564.14
2018-06-27T20:36:47.649Z,102560.91
2018-06-27T20:39:17.079Z,102565.13
2018-06-27T20:41:45.848Z,102570.33
2018-06-27T20:44:14.300Z,102562.91
2018-06-27T20:46:42.654Z,102561.10
2018-06-27T20:49:11.738Z,102561.05
2018-06-27T20:51:39.664Z,102561.59
2018-06-27T20:54:10.514Z,102559.94
2018-06-27T20:56:38.841Z,102562.70
2018-06-27T20:59:10.111Z,102563.93
2018-06-27T21:01:38.427Z,102565.98
2018-06-27T21:04:06.760Z,102560.94
2018-06-27T21:06:35.097Z,102556.16
2018-06-27T21:09:06.178Z,102553.69
2018-06-27T21:11:38.600Z,102552.14
2018-06-27T21:16:54.098Z,102549.55
2018-06-27T21:19:23.335Z,102551.56
2018-06-27T21:21:51.162Z,102549.48
2018-06-27T21:24:19.860Z,102549.81
2018-06-27T21:26:49.062Z,102551.52
2018-06-27T21:29:18.929Z,102552.64
2018-06-27T21:31:48.573Z,102553.33
2018-06-27T21:34:16.970Z,102553.06
2018-06-27T21:36:45.543Z,102555.20
2018-06-27T21:39:14.845Z,102548.95
2018-06-27T21:41:44.451Z,102551.25
2018-06-27T21:44:13.469Z,102546.68
2018-06-27T21:46:42.320Z,102551.39
2018-06-27T21:49:10.786Z,102550.42
2018-06-27T21:51:39.675Z,102551.00
2018-06-27T21:54:09.591Z,102552.64
2018-06-27T21:56:40.473Z,102551.87
2018-06-27T21:59:07.300Z,102549.50
2018-06-27T22:01:35.906Z,102550.78
2018-06-27T22:04:11.148Z,102551.11
2018-06-27T22:06:42.450Z,102545.75
2018-06-27T22:09:10.084Z,102547.28
2018-06-27T22:11:37.711Z,102549.39
2018-06-27T22:14:06.407Z,102544.47
2018-06-27T22:16:35.020Z,102550.45
2018-06-27T22:19:04.109Z,102548.13
2018-06-27T22:21:32.127Z,102548.53
2018-06-27T22:24:01.259Z,102550.86
2018-06-27T22:26:29.639Z,102550.09
2018-06-27T22:29:00.521Z,102550.61
2018-06-27T22:31:28.952Z,102549.95
2018-06-27T22:33:57.320Z,102551.66
2018-06-27T22:36:25.073Z,102549.38
2018-06-27T22:38:53.972Z,102548.53
2018-06-27T22:41:22.298Z,102559.63
2018-06-27T22:43:50.736Z,102553.64
2018-06-27T22:46:19.126Z,102553.41
2018-06-27T22:48:47.449Z,102549.84
2018-06-27T22:51:15.181Z,102546.81
2018-06-27T22:53:44.088Z,102548.25
2018-06-27T22:56:12.451Z,102540.23
2018-06-27T22:58:42.548Z,102546.52
2018-06-27T23:01:10.420Z,102543.54
2018-06-27T23:03:38.739Z,102541.97
2018-06-27T23:06:07.059Z,102541.45
2018-06-27T23:08:35.959Z,102538.23
2018-06-27T23:11:04.394Z,102534.37
2018-06-27T23:13:32.805Z,102533.50
2018-06-27T23:16:01.220Z,102537.27
2018-06-27T23:18:29.561Z,102534.19
2018-06-27T23:20:57.297Z,102534.77
2018-06-27T23:23:25.638Z,102524.76
2018-06-27T23:25:53.961Z,102525.37
2018-06-27T23:28:22.350Z,102520.86
2018-06-27T23:30:51.444Z,102525.21
2018-06-27T23:33:19.779Z,102520.75
2018-06-27T23:35:48.101Z,102520.78
2018-06-27T23:38:16.413Z,102517.72
2018-06-27T23:40:44.190Z,102513.40
2018-06-27T23:43:12.522Z,102514.11
2018-06-27T23:45:40.842Z,102510.73
2018-06-27T23:48:09.162Z,102510.79
2018-06-27T23:50:38.061Z,102514.14
2018-06-27T23:53:05.799Z,102517.89
2018-06-27T23:55:34.702Z,102516.08
2018-06-27T23:58:03.023Z,102512.41
